Tikaboo Peak, Nevada Weather observations

Data are for 10 minute period ending at time listed.
 Day   Time   Solar   Ave.   Ave.  Ave.  Vector  Max.   Baro.   Total    
  of    of     Rad.   Air    Rel.  Wind   Wind   Wind  Press.  Precip.   
Year   Day            Temp.  Hum.  Speed  Dir.   Gust                    
2016   (PST)  Kw/m2    F      %     mph   deg.    mph    mb.     in.     
-------------------------------------------------------------------------
  36    1:30   0.00   24.6    53   29.3    94    34.3   768.0    0.00 
  36    1:40   0.00   24.5    54   28.7    95    36.0   767.9    0.00 
  36    1:50   0.00   24.5    54   30.9    94    38.2   768.0    0.00 
  36    2:00   0.00   24.6    54   30.6    95    37.6   768.0    0.00 
  36    2:10   0.00   24.5    54   30.0    95    36.6   768.1    0.00 
  36    2:20   0.00   24.5    55   28.1    95    33.8   768.1    0.00 
  36    2:30   0.00   24.7    54   28.4    94    35.3   768.1    0.00 
  36    2:40   0.00   24.7    55   27.0    95    32.4   768.2    0.00 
  36    2:50   0.00   25.0    55   27.6    96    32.2   768.1    0.00 
  36    3:00   0.00   25.9    54   27.0    95    30.9   768.0    0.00 
  36    3:10   0.00   24.8    56   26.1    98    30.2   768.0    0.00 
  36    3:20   0.00   24.3    57   26.6    99    29.3   768.0    0.00 
  36    3:30   0.00   23.7    59   24.8    99    27.5   768.0    0.00 
  36    3:40   0.00   24.4    59   27.4    98    30.7   768.0    0.00 
  36    3:50   0.00   25.0    58   27.8    97    30.3   768.1    0.00 
  36    4:00   0.00   26.1    54   26.6    98    29.6   768.2    0.00 
  36    4:10   0.00   26.9    52   25.1    98    28.1   768.3    0.00 
  36    4:20   0.00   27.4    50   22.9    98    26.5   768.3    0.00 
  36    4:30   0.00   26.9    52   18.8    99    21.9   768.5    0.00 
  36    4:40   0.00   25.6    56   20.8    99    25.5   768.5    0.00 
  36    4:50   0.00   25.8    56   24.5    97    27.6   768.3    0.00 
  36    5:00   0.00   25.7    57   23.5    98    29.0   768.4    0.00 
  36    5:10   0.00   25.6    58   23.9    98    29.0   768.4    0.00 
  36    5:20   0.00   25.8    56   25.7    98    30.0   768.4    0.00 
  36    5:30   0.00   25.6    56   24.5   100    29.3   768.5    0.00 
  36    5:40   0.00   24.2    60   23.2   100    25.8   768.5    0.00 
  36    5:50   0.00   24.0    61   24.1   100    27.8   768.6    0.00 
  36    6:00   0.00   23.9    60   23.9   100    27.8   768.6    0.00 
  36    6:10   0.00   23.8    60   25.1   101    31.4   768.6    0.00 
  36    6:20   0.00   24.1    59   26.0   100    30.8   768.7    0.00 
  36    6:30   0.00   24.1    59   26.1   100    32.3   768.8    0.00 
  36    6:40   0.01   23.9    60   25.4   101    34.2   769.0    0.00 
  36    6:50   0.03   23.5    61   26.3   101    33.2   769.1    0.00 
  36    7:00   0.06   23.4    62   25.6   101    30.8   769.3    0.00 
  36    7:10   0.10   23.2    64   28.2   102    34.4   769.3    0.00 
  36    7:20   0.14   23.2    65   27.8   103    33.8   769.4    0.00 
  36    7:30   0.17   23.8    64   25.8   103    32.2   769.5    0.00 
  36    7:40   0.21   24.1    64   24.3   100    30.3   769.6    0.00 
  36    7:50   0.25   24.5    64   24.4   100    29.3   769.6    0.00 
  36    8:00   0.28   24.8    63   25.5    99    31.6   769.6    0.00 
  36    8:10   0.32   24.9    62   24.8    98    30.8   769.6    0.00 
  36    8:20   0.35   24.5    64   23.0    99    28.9   769.6    0.00 
  36    8:30   0.39   24.4    64   22.4   101    28.7   769.7    0.00 
  36    8:40   0.42   24.9    63   20.5   101    28.1   769.7    0.00 
  36    8:50   0.45   26.0    61   18.9   106    27.0   769.8    0.00 
  36    9:00   0.48   27.4    57   14.8   113    24.8   770.0    0.00 
  36    9:10   0.51   28.7    54   12.3   116    21.4   770.1    0.00 
  36    9:20   0.54   29.7    51   10.6   114    17.6   770.2    0.00 
  36    9:30   0.56   30.1    50   10.2   116    17.5   770.3    0.00 
  36    9:40   0.59   30.6    49   10.0   115    15.9   770.4    0.00 
  36    9:50   0.61   29.8    50   10.8   120    17.1   770.4    0.00 
  36   10:00   0.63   28.9    52   12.7   113    20.5   770.4    0.00 
  36   10:10   0.65   26.8    57   14.1   110    20.7   770.5    0.00 
  36   10:20   0.66   27.1    57   11.9   109    20.0   770.5    0.00 
  36   10:30   0.68   27.8    56   10.3   117    15.9   770.5    0.00 
  36   10:40   0.69   28.5    54    8.4   130    14.5   770.5    0.00 
  36   10:50   0.70   29.7    53   10.2   132    15.3   770.4    0.00 
  36   11:00   0.71   30.1    50    8.4   142    12.9   770.6    0.00 
  36   11:10   0.72   32.3    45    8.2   126    15.3   770.5    0.00 
  36   11:20   0.73   30.4    48   10.3   111    17.5   770.3    0.00 
  36   11:30   0.67   28.4    54    9.7   112    15.3   770.3    0.00 
  36   11:40   0.70   28.2    54    9.1   108    14.3   770.2    0.00 
  36   11:50   0.71   28.7    53   12.6   110    19.1   770.1    0.00 
  36   12:00   0.74   28.2    55   12.2   106    21.1   770.1    0.00 
  36   12:10   0.70   28.2    55   10.7   102    15.8   769.9    0.00 
  36   12:20   0.68   29.0    53    8.2    94    16.4   769.8    0.00 
  36   12:30   0.67   28.3    55   12.2    97    17.3   769.7    0.00 
  36   12:40   0.68   29.4    52    8.4   102    13.9   769.7    0.00 
  36   12:50   0.65   30.1    49    6.3   104    10.2   769.6    0.00 
  36   13:00   0.65   31.2    46    6.1    94    10.0   769.6    0.00 
  36   13:10   0.61   31.1    48    4.7    97    10.4   769.6    0.00 
  36   13:20   0.59   30.0    52    7.0    97    11.9   769.5    0.00 
  36   13:30   0.61   29.6    52    9.1   100    13.3   769.3    0.00 
  36   13:40   0.59   30.0    45   11.6   104    17.1   769.3    0.00 
  36   13:50   0.56   31.7    41   10.5   110    15.1   769.3    0.00 
  36   14:00   0.53   33.3    42    6.2   129    12.1   769.5    0.00 
  36   14:10   0.51   34.3    46    2.2   134     5.9   769.5    0.00 
  36   14:20   0.48   34.0    44    2.9   103     6.1   769.5    0.00 
  36   14:30   0.45   33.5    39    3.8   122     6.5   769.5    0.00 
  36   14:40   0.42   33.9    36    3.8   112     8.1   769.4    0.00 
  36   14:50   0.39   32.8    40    3.5   106     9.9   769.5    0.00 
  36   15:00   0.35   32.1    39    6.0    95    10.2   769.6    0.00 
  36   15:10   0.32   31.0    43    6.4    99    11.5   769.7    0.00 
  36   15:20   0.29   30.3    46    7.4    98    10.4   769.6    0.00 
  36   15:30   0.25   30.3    45    8.8   100    13.2   769.5    0.00 
  36   15:40   0.22   29.8    44   10.9   106    14.4   769.3    0.00 
  36   15:50   0.19   30.2    43    8.6   108    11.9   769.3    0.00 
  36   16:00   0.16   30.5    42    8.0   110    14.6   769.4    0.00 
  36   16:10   0.13   30.1    43   10.6   106    15.9   769.3    0.00 
  36   16:20   0.10   29.5    46   13.5   102    17.3   769.2    0.00 
  36   16:30   0.08   29.6    44   12.8   105    19.6   769.4    0.00 
  36   16:40   0.06   30.3    40   11.1   113    18.8   769.3    0.00 
  36   16:50   0.04   30.1    41   12.2   109    15.6   769.4    0.00 
  36   17:00   0.03   29.8    41   10.7   108    14.3   769.6    0.00 
  36   17:10   0.01   29.5    43   10.8   108    14.0   769.6    0.00 
  36   17:20   0.00   28.7    48   11.7   104    15.4   769.6    0.00 
  36   17:30   0.00   28.2    49   13.1    98    17.0   769.7    0.00 
  36   17:40   0.00   29.1    44   11.1    98    14.4   769.8    0.00 
  36   17:50   0.00   29.9    40   11.5    96    14.2   769.9    0.00 
  36   18:00   0.00   29.6    42   13.0    98    14.5   770.0    0.00 
  36   18:10   0.00   29.6    41   12.4    97    14.2   770.0    0.00 
  36   18:20   0.00   30.3    38   11.1    93    14.6   770.0    0.00 
  36   18:30   0.00   31.2    34   10.5    88    13.6   770.0    0.00 
  36   18:40   0.00   30.8    37   10.8    91    13.8   770.1    0.00 
  36   18:50   0.00   30.8    35    9.9    86    14.1   770.2    0.00 
  36   19:00   0.00   31.6    34    9.8    87    13.0   770.2    0.00 
  36   19:10   0.00   31.2    35   10.3    91    14.1   770.3    0.00 
  36   19:20   0.00   30.3    37   12.6    96    15.6   770.2    0.00 
  36   19:30   0.00   30.5    37   11.4    93    15.8   770.1    0.00 
  36   19:40   0.00   30.7    38   11.2    89    14.0   770.2    0.00 
  36   19:50   0.00   30.6    40   11.3    91    13.1   770.1    0.00 
  36   20:00   0.00   30.6    41   10.6    92    12.6   770.2    0.00 
  36   20:10   0.00   30.4    42   11.4    89    14.1   770.2    0.00 
  36   20:20   0.00   30.3    41   10.5    83    13.0   770.1    0.00 
  36   20:30   0.00   30.5    43   10.8    87    12.3   770.1    0.00 
  36   20:40   0.00   30.8    41   11.0    85    12.3   770.1    0.00 
  36   20:50   0.00   31.5    36    8.9    90    11.0   770.1    0.00 
  36   21:00   0.00   31.6    34    7.2    91     8.6   770.1    0.00 
  36   21:10   0.00   32.0    32    5.7    90     7.5   770.0    0.00 
  36   21:20   0.00   32.9    27    5.2    84     6.8   770.0    0.00 
  36   21:30   0.00   33.3    26    6.1    84     7.4   770.0    0.00 
  36   21:40   0.00   33.6    26    6.2    97     6.9   770.0    0.00 
  36   21:50   0.00   33.6    26    5.2    99     6.7   770.1    0.00 
  36   22:00   0.00   33.5    26    4.8    80     6.2   770.2    0.00 
  36   22:10   0.00   32.8    28    5.0    82     6.2   770.2    0.00 
  36   22:20   0.00   33.2    27    4.3    99     6.1   770.1    0.00 
  36   22:30   0.00   32.8    28    3.4   110     6.9   770.2    0.00 
  36   22:40   0.00   33.3    26    1.4   109     3.4   770.1    0.00 
  36   22:50   0.00   33.2    25    0.9    46     2.9   770.1    0.00 
  36   23:00   0.00   32.7    26    1.4    34     2.3   770.2    0.00 
  36   23:10   0.00   32.6    28    1.1   159     2.3   770.2    0.00 
  36   23:20   0.00   32.2    28    1.1    35     2.6   770.2    0.00 
  36   23:30   0.00   32.5    27    0.7    55     2.1   770.2    0.00 
  36   23:40   0.00   32.0    29    2.4    59     3.4   770.2    0.00 
  36   23:50   0.00   31.6    30    2.5    79     3.2   770.2    0.00 
  37    0:00   0.00   32.4    28    3.9    76     5.8   770.3    0.00 
  37    0:10   0.00   32.2    28    3.5    71     5.3   770.3    0.00 
  37    0:20   0.00   31.8    28    5.0    59     6.3   770.2    0.00 
  37    0:30   0.00   31.1    29    4.4    60     5.2   770.2    0.00 
  37    0:40   0.00   30.9    28    5.4    56     6.0   770.2    0.00 
  37    0:50   0.00   31.1    28    5.7    55     7.2   770.2    0.00 
  37    1:00   0.00   30.7    28    6.7    56     7.7   770.2    0.00 
  37    1:10   0.00   30.8    28    6.4    56     7.5   770.0    0.00 
  37    1:20   0.00   31.7    26    6.1    53     7.5   770.0    0.00 

Return to Tikaboo Peak graphs page.


Western Regional Climate Center,wrcc@dri.edu